createdAt,value
2022-10-24T00:00:13.455Z,54.57
2022-10-24T00:03:24.386Z,54.39
2022-10-24T00:06:14.220Z,54.55
2022-10-24T00:09:04.302Z,54.83
2022-10-24T00:11:54.531Z,54.59
2022-10-24T00:14:44.452Z,54.84
2022-10-24T00:17:34.321Z,54.55
2022-10-24T00:20:24.241Z,54.59
2022-10-24T00:23:14.179Z,54.72
2022-10-24T00:26:04.316Z,54.56
2022-10-24T00:28:54.456Z,54.68
2022-10-24T00:31:44.418Z,54.38
2022-10-24T00:34:34.959Z,54.70
2022-10-24T00:37:24.802Z,54.43
2022-10-24T00:40:17.154Z,54.56
2022-10-24T00:43:14.992Z,54.52
2022-10-24T00:46:05.280Z,54.64
2022-10-24T00:48:55.547Z,54.37
2022-10-24T00:51:45.418Z,54.45
2022-10-24T00:54:35.366Z,54.37
2022-10-24T00:57:27.405Z,54.56
2022-10-24T01:00:20.304Z,54.60
2022-10-24T01:03:11.363Z,54.57
2022-10-24T01:06:27.191Z,54.46
2022-10-24T01:09:30.044Z,54.51
2022-10-24T01:12:27.950Z,54.68
2022-10-24T01:15:20.780Z,54.51
2022-10-24T01:18:14.866Z,54.49
2022-10-24T01:21:29.695Z,54.62
2022-10-24T01:24:42.549Z,54.48
2022-10-24T01:28:01.720Z,54.49
2022-10-24T01:30:55.832Z,54.35
2022-10-24T01:33:49.773Z,54.63
2022-10-24T01:36:42.137Z,54.44
2022-10-24T01:39:34.592Z,54.41
2022-10-24T01:42:24.728Z,54.55
2022-10-24T01:45:22.202Z,54.54
2022-10-24T01:48:16.393Z,54.27
2022-10-24T01:51:06.871Z,54.47
2022-10-24T01:53:56.962Z,54.38
2022-10-24T01:56:46.862Z,54.43
2022-10-24T01:59:43.817Z,54.36
2022-10-24T02:02:36.340Z,54.37
2022-10-24T02:05:28.862Z,54.50
2022-10-24T02:08:24.081Z,54.59
2022-10-24T02:11:14.161Z,54.57
2022-10-24T02:14:06.760Z,54.50
2022-10-24T02:16:56.639Z,54.24
2022-10-24T02:19:46.469Z,54.38
2022-10-24T02:22:42.267Z,54.45
2022-10-24T02:25:35.247Z,54.41
2022-10-24T02:28:26.764Z,54.44
2022-10-24T02:31:21.101Z,54.47
2022-10-24T02:37:01.969Z,54.48
2022-10-24T02:39:52.343Z,54.50
2022-10-24T02:42:42.725Z,54.46
2022-10-24T02:45:32.599Z,54.41
2022-10-24T02:48:25.161Z,54.60
2022-10-24T02:51:15.138Z,54.40
2022-10-24T02:54:05.725Z,54.37
2022-10-24T02:56:58.070Z,54.69
2022-10-24T02:59:47.959Z,54.63
2022-10-24T03:02:37.909Z,54.39
2022-10-24T03:05:27.950Z,54.46
2022-10-24T03:08:18.256Z,54.43
2022-10-24T03:11:08.535Z,54.56
2022-10-24T03:13:58.391Z,54.54
2022-10-24T03:16:48.521Z,54.37
2022-10-24T03:19:38.421Z,54.50
2022-10-24T03:22:30.636Z,54.43
2022-10-24T03:25:20.772Z,54.38
2022-10-24T03:28:11.362Z,54.46
2022-10-24T03:31:01.255Z,54.59
2022-10-24T03:33:51.107Z,54.37
2022-10-24T03:36:40.961Z,54.50
2022-10-24T03:39:30.812Z,54.31
2022-10-24T03:42:21.556Z,54.41
2022-10-24T03:45:12.185Z,54.52
2022-10-24T03:48:02.065Z,54.53
2022-10-24T03:50:52.243Z,54.63
2022-10-24T03:53:42.118Z,54.60
2022-10-24T03:56:32.395Z,54.48
2022-10-24T03:59:22.243Z,54.55
2022-10-24T04:02:13.347Z,54.51
2022-10-24T04:05:03.511Z,54.64
2022-10-24T04:07:53.373Z,54.59
2022-10-24T04:10:43.232Z,54.41
2022-10-24T04:13:33.433Z,54.69
2022-10-24T04:16:23.784Z,54.40
2022-10-24T04:19:16.548Z,54.46
2022-10-24T04:22:06.444Z,54.68
2022-10-24T04:24:56.300Z,54.48
2022-10-24T04:27:46.541Z,54.80
2022-10-24T04:30:36.391Z,54.60
2022-10-24T04:33:26.329Z,54.72
2022-10-24T04:36:16.477Z,54.66
2022-10-24T04:39:06.597Z,54.67
2022-10-24T04:41:56.420Z,54.77
2022-10-24T04:44:47.729Z,54.64
2022-10-24T04:47:38.433Z,54.91
2022-10-24T04:50:28.361Z,54.63
2022-10-24T04:53:18.196Z,54.64
2022-10-24T04:56:09.146Z,54.70
2022-10-24T04:58:58.992Z,54.49
2022-10-24T05:01:48.963Z,54.39
2022-10-24T05:04:38.864Z,54.65
2022-10-24T05:07:28.721Z,54.49
2022-10-24T05:10:18.990Z,54.47
2022-10-24T05:13:09.341Z,54.25
2022-10-24T05:16:00.100Z,54.31
2022-10-24T05:18:50.017Z,54.23
2022-10-24T05:21:40.644Z,54.60
2022-10-24T05:24:30.638Z,54.44
2022-10-24T05:27:23.965Z,54.45
2022-10-24T05:30:14.837Z,54.51
2022-10-24T05:33:04.827Z,54.62
2022-10-24T05:35:54.708Z,54.76
2022-10-24T05:38:44.580Z,54.41
2022-10-24T05:41:34.468Z,54.43
2022-10-24T05:44:26.285Z,54.41
2022-10-24T05:47:16.340Z,54.48
2022-10-24T05:50:09.167Z,54.52
2022-10-24T05:52:59.108Z,54.45
2022-10-24T05:55:48.940Z,54.44
2022-10-24T05:58:38.846Z,54.50
2022-10-24T06:01:31.567Z,54.50
2022-10-24T06:04:21.943Z,54.27
2022-10-24T06:07:12.218Z,54.38
2022-10-24T06:10:03.122Z,54.39
2022-10-24T06:12:53.445Z,54.13
2022-10-24T06:15:43.975Z,54.23
2022-10-24T06:18:34.488Z,54.26
2022-10-24T06:21:24.732Z,54.52
2022-10-24T06:24:14.536Z,54.20
2022-10-24T06:27:05.099Z,54.21
2022-10-24T06:29:55.415Z,54.33
2022-10-24T06:32:45.948Z,54.25
2022-10-24T06:35:36.272Z,54.30
2022-10-24T06:38:26.279Z,54.39
2022-10-24T06:41:16.971Z,54.29
2022-10-24T06:44:10.856Z,54.32
2022-10-24T06:47:01.053Z,54.12
2022-10-24T06:49:51.196Z,54.21
2022-10-24T06:52:41.416Z,54.29
2022-10-24T06:55:31.454Z,54.42
2022-10-24T06:58:21.408Z,54.19
2022-10-24T07:01:13.412Z,54.33
2022-10-24T07:04:04.681Z,54.27
2022-10-24T07:06:54.775Z,54.14
2022-10-24T07:09:45.068Z,54.19
2022-10-24T07:12:35.114Z,53.60
2022-10-24T07:15:25.357Z,53.21
2022-10-24T07:18:16.554Z,52.86
2022-10-24T07:21:08.736Z,52.75
2022-10-24T07:23:58.971Z,52.63
2022-10-24T07:26:49.225Z,52.35
2022-10-24T07:29:40.615Z,52.10
2022-10-24T07:32:30.535Z,51.98
2022-10-24T07:35:20.656Z,51.63
2022-10-24T07:38:10.662Z,51.45
2022-10-24T07:41:04.427Z,51.58
2022-10-24T07:43:55.171Z,51.78
2022-10-24T07:46:45.080Z,51.95
2022-10-24T07:49:34.989Z,52.11
2022-10-24T07:52:25.995Z,51.80
2022-10-24T07:55:16.115Z,51.07
2022-10-24T07:58:06.090Z,51.32
2022-10-24T08:00:56.086Z,51.32
2022-10-24T08:03:46.238Z,51.54
2022-10-24T08:06:36.499Z,51.82
2022-10-24T08:09:26.443Z,51.88
2022-10-24T08:12:16.380Z,52.05
2022-10-24T08:15:08.406Z,52.12
2022-10-24T08:17:58.586Z,52.25
2022-10-24T08:20:58.857Z,52.07
2022-10-24T08:23:51.396Z,52.19
2022-10-24T08:26:41.465Z,52.17
2022-10-24T08:29:31.484Z,52.45
2022-10-24T08:32:21.807Z,52.39
2022-10-24T08:35:15.201Z,52.36
2022-10-24T08:38:05.433Z,52.39
2022-10-24T08:40:55.741Z,52.40
2022-10-24T08:43:45.872Z,52.41
2022-10-24T08:46:48.287Z,52.52
2022-10-24T08:49:41.415Z,52.76
2022-10-24T08:52:35.008Z,52.74
2022-10-24T08:55:49.201Z,52.74
2022-10-24T08:58:42.087Z,52.41
2022-10-24T09:01:35.837Z,52.73
2022-10-24T09:04:28.870Z,52.70
2022-10-24T09:07:20.501Z,52.66
2022-10-24T09:10:15.540Z,52.76
2022-10-24T09:13:13.735Z,52.92
2022-10-24T09:16:04.067Z,53.09
2022-10-24T09:18:54.889Z,53.16
2022-10-24T09:21:45.096Z,53.08
2022-10-24T09:24:41.279Z,53.20
2022-10-24T09:27:33.395Z,53.40
2022-10-24T09:30:31.465Z,53.13
2022-10-24T09:33:28.477Z,53.16
2022-10-24T09:36:21.090Z,53.21
2022-10-24T09:39:30.944Z,53.33
2022-10-24T09:42:23.318Z,53.39
2022-10-24T09:45:30.908Z,53.68
2022-10-24T09:48:29.151Z,53.44
2022-10-24T09:51:26.642Z,53.32
2022-10-24T09:54:31.656Z,52.73
2022-10-24T09:57:24.173Z,52.78
2022-10-24T10:00:24.998Z,52.56
2022-10-24T10:03:25.357Z,52.49
2022-10-24T10:06:18.664Z,52.57
2022-10-24T10:09:13.912Z,52.21
2022-10-24T10:12:04.455Z,52.29
2022-10-24T10:14:54.422Z,52.19
2022-10-24T10:17:50.018Z,51.91
2022-10-24T10:20:41.158Z,51.81
2022-10-24T10:23:32.736Z,51.98
2022-10-24T10:26:27.912Z,51.98
2022-10-24T10:29:23.830Z,51.53
2022-10-24T10:32:17.253Z,51.67
2022-10-24T10:35:15.428Z,51.50
2022-10-24T10:38:13.690Z,51.49
2022-10-24T10:41:06.998Z,51.47
2022-10-24T10:44:05.627Z,51.39
2022-10-24T10:47:03.295Z,51.25
2022-10-24T10:49:56.402Z,51.26
2022-10-24T10:52:48.579Z,51.46
2022-10-24T10:55:41.948Z,51.57
2022-10-24T10:58:39.215Z,51.51
2022-10-24T11:01:34.243Z,51.38
2022-10-24T11:04:30.381Z,51.44
2022-10-24T11:07:24.912Z,51.53
2022-10-24T11:10:17.148Z,51.52
2022-10-24T11:13:09.893Z,51.67
2022-10-24T11:16:02.682Z,51.62
2022-10-24T11:18:54.055Z,51.52
2022-10-24T11:21:44.601Z,51.74
2022-10-24T11:24:46.824Z,51.72
2022-10-24T11:27:40.329Z,51.71
2022-10-24T11:30:42.356Z,51.95
2022-10-24T11:33:36.384Z,52.08
2022-10-24T11:36:31.573Z,51.88
2022-10-24T11:39:24.757Z,51.79
2022-10-24T11:42:19.402Z,51.78
2022-10-24T11:45:12.909Z,51.95
2022-10-24T11:48:10.483Z,52.28
2022-10-24T11:51:03.303Z,52.19
2022-10-24T11:53:55.135Z,52.08
2022-10-24T11:56:47.100Z,52.15
2022-10-24T11:59:40.936Z,52.16
2022-10-24T12:03:22.589Z,52.28
2022-10-24T12:07:15.880Z,52.18
2022-10-24T12:10:38.015Z,52.15
2022-10-24T12:14:11.755Z,51.92
2022-10-24T12:17:17.499Z,51.96
2022-10-24T12:20:12.918Z,51.90
2022-10-24T12:23:03.443Z,51.98
2022-10-24T12:26:05.439Z,52.04
2022-10-24T12:28:56.771Z,51.92
2022-10-24T12:31:46.799Z,51.98
2022-10-24T12:34:49.198Z,51.91
2022-10-24T12:37:45.835Z,52.01
2022-10-24T12:40:54.812Z,51.78
2022-10-24T12:43:46.821Z,51.87
2022-10-24T12:46:55.635Z,51.83
2022-10-24T12:49:48.746Z,51.88
2022-10-24T12:53:14.480Z,51.80
2022-10-24T12:56:20.620Z,52.01
2022-10-24T12:59:21.024Z,51.65
2022-10-24T13:02:38.480Z,51.77
2022-10-24T13:05:54.400Z,52.01
2022-10-24T13:08:58.447Z,51.78
2022-10-24T13:12:03.412Z,52.01
2022-10-24T13:15:04.617Z,52.09
2022-10-24T13:18:05.430Z,52.18
2022-10-24T13:21:15.057Z,52.05
2022-10-24T13:24:22.474Z,52.38
2022-10-24T13:27:32.249Z,52.28
2022-10-24T13:30:27.292Z,52.18
2022-10-24T13:33:43.321Z,52.08
2022-10-24T13:36:33.324Z,52.31
2022-10-24T13:39:26.455Z,52.30
2022-10-24T13:42:28.615Z,52.35
2022-10-24T13:45:26.437Z,52.35
2022-10-24T13:48:19.382Z,52.26
2022-10-24T13:51:13.727Z,52.11
2022-10-24T13:54:11.596Z,51.99
2022-10-24T13:57:02.351Z,52.32
2022-10-24T13:59:58.460Z,52.34
2022-10-24T14:02:49.012Z,52.12
2022-10-24T14:05:44.828Z,52.24
2022-10-24T14:08:36.604Z,52.30
2022-10-24T14:11:28.010Z,52.31
2022-10-24T14:14:28.122Z,52.26
2022-10-24T14:17:23.636Z,52.34
2022-10-24T14:20:23.604Z,52.14
2022-10-24T14:23:26.302Z,52.50
2022-10-24T14:26:18.722Z,52.26
2022-10-24T14:29:22.660Z,52.31
2022-10-24T14:32:15.497Z,52.04
2022-10-24T14:35:06.851Z,52.11
2022-10-24T14:37:56.748Z,52.12
2022-10-24T14:40:49.442Z,52.28
2022-10-24T14:43:43.540Z,52.33
2022-10-24T14:46:36.526Z,52.25
2022-10-24T14:49:33.130Z,52.26
2022-10-24T14:52:35.761Z,52.33
2022-10-24T14:55:26.226Z,52.29
2022-10-24T14:58:23.879Z,52.28
2022-10-24T15:01:18.650Z,52.40
2022-10-24T15:04:23.031Z,52.19
2022-10-24T15:07:28.787Z,52.37
2022-10-24T15:10:29.481Z,52.41
2022-10-24T15:13:20.801Z,52.32
2022-10-24T15:16:22.275Z,52.30
2022-10-24T15:19:17.159Z,52.21
2022-10-24T15:22:13.796Z,52.48
2022-10-24T15:25:06.086Z,52.58
2022-10-24T15:27:59.005Z,52.62
2022-10-24T15:30:48.864Z,52.44
2022-10-24T15:36:32.974Z,52.45
2022-10-24T15:39:24.575Z,52.33
2022-10-24T15:42:16.524Z,52.39
2022-10-24T15:45:14.663Z,52.30
2022-10-24T15:48:04.733Z,52.35
2022-10-24T15:50:55.158Z,52.32
2022-10-24T15:53:45.614Z,52.62
2022-10-24T15:56:35.556Z,52.60
2022-10-24T15:59:26.113Z,52.76
2022-10-24T16:02:19.785Z,52.52
2022-10-24T16:05:16.150Z,52.64
2022-10-24T16:08:06.272Z,52.62
2022-10-24T16:10:56.971Z,52.60
2022-10-24T16:13:47.062Z,52.69
2022-10-24T16:16:37.290Z,52.50
2022-10-24T16:19:27.742Z,52.56
2022-10-24T16:22:17.922Z,52.80
2022-10-24T16:25:10.089Z,52.61
2022-10-24T16:28:00.056Z,52.75
2022-10-24T16:30:50.010Z,52.84
2022-10-24T16:33:40.108Z,52.91
2022-10-24T16:36:30.290Z,52.90
2022-10-24T16:39:20.316Z,53.00
2022-10-24T16:42:10.200Z,52.82
2022-10-24T16:45:01.848Z,52.90
2022-10-24T16:47:52.233Z,53.08
2022-10-24T16:50:46.224Z,53.00
2022-10-24T16:53:37.061Z,53.14
2022-10-24T16:56:27.328Z,53.13
2022-10-24T16:59:17.507Z,53.11
2022-10-24T17:02:09.447Z,53.04
2022-10-24T17:04:59.468Z,53.09
2022-10-24T17:07:49.595Z,53.17
2022-10-24T17:10:39.851Z,53.07
2022-10-24T17:13:30.038Z,53.34
2022-10-24T17:16:20.564Z,53.36
2022-10-24T17:19:18.008Z,53.49
2022-10-24T17:22:10.163Z,53.91
2022-10-24T17:25:02.178Z,53.70
2022-10-24T17:27:52.879Z,53.81
2022-10-24T17:30:43.406Z,53.79
2022-10-24T17:33:36.296Z,53.55
2022-10-24T17:36:30.199Z,53.36
2022-10-24T17:42:19.175Z,53.33
2022-10-24T17:45:15.239Z,53.48
2022-10-24T17:48:05.254Z,53.30
2022-10-24T17:50:56.427Z,53.19
2022-10-24T17:53:46.726Z,53.12
2022-10-24T17:56:36.916Z,53.27
2022-10-24T17:59:26.995Z,53.43
2022-10-24T18:02:17.119Z,53.60
2022-10-24T18:05:08.549Z,53.61
2022-10-24T18:07:58.499Z,53.59
2022-10-24T18:10:49.589Z,53.49
2022-10-24T18:13:39.768Z,53.55
2022-10-24T18:16:30.709Z,53.81
2022-10-24T18:19:21.112Z,53.58
2022-10-24T18:22:11.047Z,53.63
2022-10-24T18:25:01.396Z,53.83
2022-10-24T18:27:52.520Z,53.82
2022-10-24T18:30:42.737Z,53.85
2022-10-24T18:33:34.610Z,53.81
2022-10-24T18:36:26.410Z,53.83
2022-10-24T18:39:16.651Z,53.78
2022-10-24T18:42:11.578Z,54.10
2022-10-24T18:45:04.082Z,53.72
2022-10-24T18:47:55.336Z,53.94
2022-10-24T18:50:45.365Z,53.77
2022-10-24T18:53:38.902Z,53.78
2022-10-24T18:56:29.541Z,53.70
2022-10-24T18:59:21.737Z,53.80
2022-10-24T19:02:25.667Z,53.71
2022-10-24T19:05:20.897Z,53.62
2022-10-24T19:08:16.778Z,53.84
2022-10-24T19:14:04.354Z,53.52
2022-10-24T19:16:54.387Z,53.81
2022-10-24T19:19:44.284Z,53.81
2022-10-24T19:22:34.213Z,53.80
2022-10-24T19:25:24.186Z,53.76
2022-10-24T19:28:16.616Z,53.57
2022-10-24T19:31:08.067Z,53.91
2022-10-24T19:33:58.038Z,53.92
2022-10-24T19:36:48.017Z,53.96
2022-10-24T19:39:39.123Z,53.91
2022-10-24T19:42:29.125Z,54.20
2022-10-24T19:45:21.532Z,54.00
2022-10-24T19:48:15.189Z,53.97
2022-10-24T19:51:11.363Z,53.94
2022-10-24T19:54:01.316Z,54.07
2022-10-24T19:56:52.472Z,54.00
2022-10-24T19:59:42.596Z,53.96
2022-10-24T20:02:33.885Z,53.88
2022-10-24T20:05:23.804Z,53.82
2022-10-24T20:08:13.691Z,53.99
2022-10-24T20:11:04.379Z,53.88
2022-10-24T20:13:54.360Z,53.92
2022-10-24T20:16:44.582Z,53.83
2022-10-24T20:19:34.456Z,53.89
2022-10-24T20:22:25.283Z,53.92
2022-10-24T20:25:15.348Z,53.70
2022-10-24T20:28:06.233Z,53.86
2022-10-24T20:30:56.141Z,53.84
2022-10-24T20:33:47.165Z,53.67
2022-10-24T20:36:38.302Z,53.80
2022-10-24T20:39:28.190Z,53.70
2022-10-24T20:42:20.290Z,53.84
2022-10-24T20:45:11.625Z,53.72
2022-10-24T20:48:01.627Z,53.70
2022-10-24T20:50:51.552Z,54.04
2022-10-24T20:53:41.783Z,53.79
2022-10-24T20:56:31.697Z,53.72
2022-10-24T20:59:22.209Z,53.83
2022-10-24T21:02:12.170Z,53.68
2022-10-24T21:05:02.476Z,53.91
2022-10-24T21:07:53.106Z,53.80
2022-10-24T21:10:43.007Z,53.71
2022-10-24T21:13:32.963Z,53.72
2022-10-24T21:16:23.461Z,53.77
2022-10-24T21:19:13.369Z,53.93
2022-10-24T21:22:03.349Z,53.83
2022-10-24T21:24:53.222Z,53.79
2022-10-24T21:27:43.081Z,53.83
2022-10-24T21:30:32.934Z,53.82
2022-10-24T21:33:23.171Z,53.70
2022-10-24T21:36:15.138Z,53.75
2022-10-24T21:39:05.135Z,53.88
2022-10-24T21:41:54.999Z,53.73
2022-10-24T21:44:44.856Z,53.80
2022-10-24T21:47:34.841Z,53.77
2022-10-24T21:50:24.764Z,53.72
2022-10-24T21:53:14.586Z,53.73
2022-10-24T21:56:06.218Z,53.78
2022-10-24T21:58:59.230Z,54.00
2022-10-24T22:01:50.304Z,53.75
2022-10-24T22:04:40.219Z,53.88
2022-10-24T22:07:30.565Z,53.79
2022-10-24T22:10:20.432Z,53.88
2022-10-24T22:13:10.304Z,53.81
2022-10-24T22:16:00.198Z,53.94
2022-10-24T22:18:51.524Z,53.79
2022-10-24T22:21:43.281Z,53.81
2022-10-24T22:24:33.165Z,53.90
2022-10-24T22:27:24.531Z,53.81
2022-10-24T22:30:15.383Z,53.75
2022-10-24T22:33:07.148Z,54.00
2022-10-24T22:35:59.881Z,53.90
2022-10-24T22:38:54.060Z,54.09
2022-10-24T22:41:45.649Z,53.91
2022-10-24T22:44:37.346Z,53.75
2022-10-24T22:47:39.286Z,53.86
2022-10-24T22:50:51.369Z,53.83
2022-10-24T22:53:42.352Z,53.86
2022-10-24T22:56:36.166Z,53.97
2022-10-24T22:59:28.005Z,53.67
2022-10-24T23:02:27.529Z,53.72
2022-10-24T23:05:28.855Z,53.71
2022-10-24T23:08:27.960Z,53.88
2022-10-24T23:11:19.964Z,53.82
2022-10-24T23:14:12.305Z,53.66
2022-10-24T23:17:03.281Z,53.59
2022-10-24T23:19:55.001Z,53.68
2022-10-24T23:22:44.860Z,53.86
2022-10-24T23:25:37.386Z,53.81
2022-10-24T23:28:33.566Z,53.87
2022-10-24T23:31:25.206Z,53.81
2022-10-24T23:34:17.410Z,53.68
2022-10-24T23:37:10.450Z,53.74
2022-10-24T23:40:03.306Z,53.68
2022-10-24T23:42:54.688Z,53.96
2022-10-24T23:45:49.126Z,53.72
2022-10-24T23:48:48.529Z,53.76
2022-10-24T23:51:41.587Z,53.72
2022-10-24T23:54:34.294Z,53.82
2022-10-24T23:57:25.904Z,54.03
